Time;durP1;ratioP1;P1;durP2;ratioP2;P2;SDS_P1;SDS_P2;PMS_P1;PMS_P2;Temp;Humidity;BMP_temperature;BMP_pressure;BME280_temperature;BME280_humidity;BME280_pressure;Samples;Min_cycle;Max_cycle;Signal;HPM_P1;HPM_P2
2020/12/15 00:01:23;;;;;;;7.83;6.37;;;6.70;99.90;;;;;;5090103;28;20971;-80
2020/12/15 00:03:50;;;;;;;6.30;5.80;;;6.70;99.90;;;;;;5088903;28;20250;-80
2020/12/15 00:06:17;;;;;;;6.87;6.27;;;6.70;99.90;;;;;;5088566;28;20293;-80
2020/12/15 00:08:44;;;;;;;6.93;6.23;;;6.70;99.90;;;;;;5088510;28;20692;-80
2020/12/15 00:11:17;;;;;;;6.50;6.00;;;6.70;99.90;;;;;;5088628;28;20226;-80
2020/12/15 00:13:43;;;;;;;9.43;8.43;;;6.70;99.90;;;;;;5088524;28;20671;-81
2020/12/15 00:16:10;;;;;;;12.93;11.63;;;6.70;99.90;;;;;;5088968;28;20395;-78
2020/12/15 00:18:36;;;;;;;8.80;7.97;;;6.70;99.90;;;;;;5088447;28;20233;-77
2020/12/15 00:21:02;;;;;;;8.83;8.03;;;6.70;99.90;;;;;;5088181;28;20260;-77
2020/12/15 00:23:29;;;;;;;7.73;7.00;;;6.70;99.90;;;;;;5088355;28;20211;-77
2020/12/15 00:25:56;;;;;;;6.83;6.30;;;6.70;99.90;;;;;;5088078;28;20693;-79
2020/12/15 00:28:22;;;;;;;6.33;5.80;;;6.60;99.90;;;;;;5088456;28;20207;-79
2020/12/15 00:30:49;;;;;;;6.80;6.17;;;6.70;99.90;;;;;;5088369;28;20226;-79
2020/12/15 00:33:15;;;;;;;6.67;6.17;;;6.70;99.90;;;;;;5088638;28;20569;-79
2020/12/15 00:35:41;;;;;;;6.27;5.77;;;6.60;99.90;;;;;;5088338;28;20205;-79
2020/12/15 00:38:08;;;;;;;6.50;6.00;;;6.60;99.90;;;;;;5088157;28;20946;-79
2020/12/15 00:40:34;;;;;;;6.40;5.73;;;6.70;99.90;;;;;;5088299;28;20673;-79
2020/12/15 00:43:01;;;;;;;7.10;6.43;;;6.60;99.90;;;;;;5088176;28;21005;-79
2020/12/15 00:45:28;;;;;;;6.87;6.30;;;6.60;99.90;;;;;;5088122;28;20732;-78
2020/12/15 00:47:54;;;;;;;7.10;6.33;;;6.60;99.90;;;;;;5087779;28;20302;-77
2020/12/15 00:50:20;;;;;;;7.13;6.57;;;6.60;99.90;;;;;;5088336;28;20256;-78
2020/12/15 00:52:46;;;;;;;6.60;6.10;;;6.60;99.90;;;;;;5087546;28;20203;-78
2020/12/15 00:55:13;;;;;;;7.03;6.43;;;6.60;99.90;;;;;;5087671;28;20221;-78
2020/12/15 00:57:39;;;;;;;7.30;6.63;;;6.60;99.90;;;;;;5088095;28;20213;-78
2020/12/15 01:00:09;;;;;;;7.40;6.67;;;6.60;99.90;;;;;;5087632;28;20605;-78
2020/12/15 01:02:35;;;;;;;7.10;6.60;;;6.50;99.90;;;;;;5088286;28;20206;-78
2020/12/15 01:05:02;;;;;;;7.47;6.77;;;6.60;99.90;;;;;;5091842;28;20302;-79
2020/12/15 01:07:28;;;;;;;7.00;6.40;;;6.60;99.90;;;;;;5090901;28;20572;-79
2020/12/15 01:09:55;;;;;;;7.23;6.53;;;6.50;99.90;;;;;;5090842;28;20290;-80
2020/12/15 01:12:21;;;;;;;7.73;6.93;;;6.50;99.90;;;;;;5091623;28;20506;-80
2020/12/15 01:14:47;;;;;;;7.50;6.90;;;6.50;99.90;;;;;;5091971;28;20665;-79
2020/12/15 01:17:15;;;;;;;7.67;6.97;;;6.50;99.90;;;;;;5091374;28;20203;-79
2020/12/15 01:19:41;;;;;;;7.50;6.80;;;6.60;99.90;;;;;;5091995;28;20230;-80
2020/12/15 01:22:08;;;;;;;7.70;7.03;;;6.50;99.90;;;;;;5091568;28;20221;-79
2020/12/15 01:24:34;;;;;;;7.60;6.93;;;6.50;99.90;;;;;;5091638;28;20229;-79
2020/12/15 01:27:00;;;;;;;7.23;6.57;;;6.50;99.90;;;;;;5091447;28;20711;-80
2020/12/15 01:29:27;;;;;;;7.70;7.00;;;6.50;99.90;;;;;;5091424;28;20217;-79
2020/12/15 01:31:53;;;;;;;7.60;6.90;;;6.50;99.90;;;;;;5091427;28;20207;-79
2020/12/15 01:34:20;;;;;;;7.07;6.47;;;6.50;99.90;;;;;;5091581;28;20665;-79
2020/12/15 01:36:47;;;;;;;7.20;6.50;;;6.50;99.90;;;;;;5091880;28;20213;-80
2020/12/15 01:39:14;;;;;;;7.70;7.00;;;6.50;99.90;;;;;;5090760;28;20233;-79
2020/12/15 01:41:40;;;;;;;7.53;6.83;;;6.50;99.90;;;;;;5091234;28;20317;-79
2020/12/15 01:44:06;;;;;;;7.13;6.57;;;6.50;99.90;;;;;;5091578;28;20512;-79
2020/12/15 01:46:34;;;;;;;7.67;6.97;;;6.50;99.90;;;;;;5091149;28;20203;-79
2020/12/15 01:49:01;;;;;;;7.23;6.60;;;6.50;99.90;;;;;;5091231;28;20202;-79
2020/12/15 01:51:30;;;;;;;7.40;6.80;;;6.50;99.90;;;;;;5090859;28;20214;-79
2020/12/15 01:53:58;;;;;;;7.13;6.53;;;6.50;99.90;;;;;;5090597;28;20245;-80
2020/12/15 01:56:25;;;;;;;7.03;6.43;;;6.50;99.90;;;;;;5091262;28;20203;-79
2020/12/15 01:58:54;;;;;;;7.63;6.93;;;6.50;99.90;;;;;;5090811;28;20727;-79
2020/12/15 02:01:21;;;;;;;7.07;6.23;;;6.50;99.90;;;;;;5091215;28;20592;-78
2020/12/15 02:03:48;;;;;;;6.77;6.17;;;6.50;99.90;;;;;;5090775;28;20207;-77
2020/12/15 02:06:15;;;;;;;6.70;6.10;;;6.40;99.90;;;;;;5090629;28;20263;-77
2020/12/15 02:08:43;;;;;;;6.73;6.03;;;6.40;99.90;;;;;;5091040;28;20207;-78
2020/12/15 02:11:09;;;;;;;6.40;5.90;;;6.40;99.90;;;;;;5090152;28;20210;-78
2020/12/15 02:13:36;;;;;;;6.90;6.30;;;6.50;99.90;;;;;;5090335;28;20203;-78
2020/12/15 02:16:03;;;;;;;6.90;6.30;;;6.40;99.90;;;;;;5090623;28;20651;-78
2020/12/15 02:18:29;;;;;;;7.00;6.10;;;6.40;99.90;;;;;;5090757;28;20668;-78
2020/12/15 02:20:56;;;;;;;6.80;6.20;;;6.40;99.90;;;;;;5090621;28;20560;-78
2020/12/15 02:23:23;;;;;;;7.13;6.43;;;6.40;99.90;;;;;;5090684;28;20203;-78
2020/12/15 02:25:49;;;;;;;6.67;6.10;;;6.40;99.90;;;;;;5090389;28;20221;-77
2020/12/15 02:28:16;;;;;;;7.80;7.10;;;6.40;99.90;;;;;;5090084;28;20225;-77
2020/12/15 02:30:42;;;;;;;6.87;6.27;;;6.40;99.90;;;;;;5090562;28;20304;-77
2020/12/15 02:33:08;;;;;;;6.90;6.40;;;6.40;99.90;;;;;;5089722;28;20238;-77
2020/12/15 02:35:34;;;;;;;7.23;6.63;;;6.40;99.90;;;;;;5090257;28;20209;-77
2020/12/15 02:38:01;;;;;;;6.97;6.37;;;6.30;99.90;;;;;;5090184;28;20203;-78
2020/12/15 02:40:28;;;;;;;6.93;6.33;;;6.30;99.90;;;;;;5089780;28;20607;-78
2020/12/15 02:42:54;;;;;;;6.67;6.07;;;6.30;99.90;;;;;;5090077;28;20217;-78
2020/12/15 02:45:21;;;;;;;7.60;6.90;;;6.30;99.90;;;;;;5090234;28;20203;-78
2020/12/15 02:47:47;;;;;;;7.23;6.63;;;6.30;99.90;;;;;;5089348;28;20202;-78
2020/12/15 02:50:21;;;;;;;6.90;6.30;;;6.20;99.90;;;;;;5089716;28;20232;-78
2020/12/15 02:52:47;;;;;;;7.07;6.43;;;6.20;99.90;;;;;;5090251;28;20198;-80
2020/12/15 02:55:14;;;;;;;7.37;6.73;;;6.20;99.90;;;;;;5090241;28;20198;-80
2020/12/15 02:57:41;;;;;;;7.60;7.00;;;6.20;99.90;;;;;;5089870;28;20207;-79
2020/12/15 03:00:08;;;;;;;8.00;6.47;;;6.20;99.90;;;;;;5090057;28;20280;-79
2020/12/15 03:02:35;;;;;;;8.30;7.30;;;6.20;99.90;;;;;;5089989;28;20293;-79
2020/12/15 03:05:01;;;;;;;7.20;6.60;;;6.20;99.90;;;;;;5089911;28;20207;-78
2020/12/15 03:07:27;;;;;;;7.13;6.60;;;6.20;99.90;;;;;;5089336;28;20687;-79
2020/12/15 03:09:54;;;;;;;7.00;6.40;;;6.20;99.90;;;;;;5089828;28;20221;-78
2020/12/15 03:12:20;;;;;;;7.97;7.17;;;6.10;99.90;;;;;;5089339;28;20669;-78
2020/12/15 03:14:48;;;;;;;7.37;6.77;;;6.10;99.90;;;;;;5089764;28;20222;-78
2020/12/15 03:17:15;;;;;;;7.70;7.03;;;6.20;99.90;;;;;;5089114;28;20506;-78
2020/12/15 03:19:41;;;;;;;7.77;7.07;;;6.10;99.90;;;;;;5089579;28;20227;-78
2020/12/15 03:22:08;;;;;;;8.03;7.23;;;6.10;99.90;;;;;;5089171;28;20203;-78
2020/12/15 03:24:34;;;;;;;8.13;7.43;;;6.10;99.90;;;;;;5088738;28;20202;-78
2020/12/15 03:27:00;;;;;;;8.17;7.47;;;6.10;99.90;;;;;;5088811;28;20206;-78
2020/12/15 03:29:27;;;;;;;8.07;7.27;;;6.10;99.90;;;;;;5089237;28;20222;-78
2020/12/15 03:31:54;;;;;;;7.97;7.37;;;6.10;99.90;;;;;;5088862;28;20216;-78
2020/12/15 03:34:20;;;;;;;8.63;7.83;;;6.10;99.90;;;;;;5089052;28;20699;-78
2020/12/15 03:36:47;;;;;;;8.33;7.57;;;6.00;99.90;;;;;;5088880;28;20294;-78
2020/12/15 03:39:13;;;;;;;8.43;7.63;;;6.10;99.90;;;;;;5088873;28;20229;-78
2020/12/15 03:41:40;;;;;;;8.53;7.73;;;6.10;99.90;;;;;;5088994;28;20320;-78
2020/12/15 03:44:06;;;;;;;8.47;7.67;;;6.10;99.90;;;;;;5089229;28;20211;-78
2020/12/15 03:46:32;;;;;;;8.53;7.73;;;6.10;99.90;;;;;;5089098;28;20206;-78
2020/12/15 03:49:00;;;;;;;8.77;7.97;;;6.10;99.90;;;;;;5088639;28;20220;-78
2020/12/15 03:51:26;;;;;;;9.70;8.00;;;6.10;99.90;;;;;;5088676;28;20217;-78
2020/12/15 03:53:52;;;;;;;8.50;7.70;;;6.10;99.90;;;;;;5088492;28;20862;-79
2020/12/15 03:56:19;;;;;;;8.23;7.53;;;6.10;99.90;;;;;;5088987;28;20211;-79
2020/12/15 03:58:45;;;;;;;8.50;7.77;;;6.10;99.90;;;;;;5088383;28;20596;-79
2020/12/15 04:01:11;;;;;;;9.47;8.57;;;6.10;99.90;;;;;;5088589;28;20206;-78
2020/12/15 04:03:38;;;;;;;9.00;8.10;;;6.00;99.90;;;;;;5088609;28;20298;-79
2020/12/15 04:06:07;;;;;;;8.63;7.83;;;6.10;99.90;;;;;;5088741;28;20206;-79
2020/12/15 04:08:33;;;;;;;9.67;8.67;;;6.00;99.90;;;;;;5088391;28;20256;-78
2020/12/15 04:11:00;;;;;;;9.17;8.27;;;6.00;99.90;;;;;;5088686;28;20236;-78
2020/12/15 04:13:26;;;;;;;8.97;8.10;;;6.00;99.90;;;;;;5088734;28;20207;-78
2020/12/15 04:15:52;;;;;;;9.07;8.27;;;6.00;99.90;;;;;;5088519;28;20237;-78
2020/12/15 04:18:19;;;;;;;8.83;8.03;;;6.00;99.90;;;;;;5088646;28;20207;-77
2020/12/15 04:20:45;;;;;;;8.17;7.47;;;6.00;99.90;;;;;;5088513;28;20322;-78
2020/12/15 04:23:12;;;;;;;8.80;8.00;;;5.90;99.90;;;;;;5088413;28;20209;-78
2020/12/15 04:25:51;;;;;;;8.43;7.63;;;6.00;99.90;;;;;;5088361;28;20661;-78
2020/12/15 04:28:18;;;;;;;9.73;8.77;;;5.90;99.90;;;;;;5088504;28;20191;-77
2020/12/15 04:30:44;;;;;;;9.77;8.87;;;5.90;99.90;;;;;;5088396;28;20218;-77
2020/12/15 04:33:10;;;;;;;9.50;8.60;;;5.90;99.90;;;;;;5088091;28;20207;-78
2020/12/15 04:35:37;;;;;;;9.70;8.70;;;5.90;99.90;;;;;;5088387;28;20300;-78
2020/12/15 04:38:04;;;;;;;10.40;9.40;;;5.90;99.90;;;;;;5088813;28;20212;-77
2020/12/15 04:40:32;;;;;;;9.97;9.03;;;5.80;99.90;;;;;;5092244;28;20612;-77
2020/12/15 04:43:01;;;;;;;10.60;9.50;;;5.80;99.90;;;;;;5092155;28;20203;-78
2020/12/15 04:45:27;;;;;;;9.47;8.67;;;5.80;99.90;;;;;;5092568;28;20632;-78
2020/12/15 04:48:00;;;;;;;10.10;9.20;;;5.80;99.90;;;;;;5092603;28;20229;-78
2020/12/15 04:50:33;;;;;;;10.00;9.00;;;5.80;99.90;;;;;;5092297;28;20205;-79
2020/12/15 04:53:06;;;;;;;10.87;9.77;;;5.80;99.90;;;;;;5092315;28;20243;-80
2020/12/15 04:55:34;;;;;;;10.53;9.53;;;5.80;99.90;;;;;;5092228;28;20778;-80
2020/12/15 04:58:01;;;;;;;10.77;9.40;;;5.80;99.90;;;;;;5092115;28;20209;-80
2020/12/15 05:00:28;;;;;;;10.90;9.77;;;5.70;99.90;;;;;;5091802;28;20234;-78
2020/12/15 05:02:57;;;;;;;10.77;9.77;;;5.70;99.90;;;;;;5092164;28;20203;-79
2020/12/15 05:05:24;;;;;;;10.10;9.20;;;5.70;99.90;;;;;;5092181;28;20576;-78
2020/12/15 05:07:51;;;;;;;10.67;9.67;;;5.70;99.90;;;;;;5091975;28;20206;-79
2020/12/15 05:10:20;;;;;;;10.77;9.73;;;5.70;99.90;;;;;;5092102;28;20540;-78
2020/12/15 05:12:48;;;;;;;12.17;10.87;;;5.70;99.90;;;;;;5091806;28;20676;-79
2020/12/15 05:15:16;;;;;;;10.80;9.70;;;5.70;99.90;;;;;;5091584;28;20665;-79
2020/12/15 05:17:42;;;;;;;11.63;10.50;;;5.70;99.90;;;;;;5091972;28;20263;-79
2020/12/15 05:20:09;;;;;;;11.47;10.27;;;5.70;99.90;;;;;;5091659;28;20290;-79
2020/12/15 05:22:41;;;;;;;10.60;9.60;;;5.70;99.90;;;;;;5091705;28;20297;-79
2020/12/15 05:25:08;;;;;;;11.10;10.00;;;5.70;99.90;;;;;;5091858;28;20202;-79
2020/12/15 05:27:41;;;;;;;11.73;10.57;;;5.70;99.90;;;;;;5091298;28;20298;-79
2020/12/15 05:30:10;;;;;;;11.13;10.03;;;5.70;99.90;;;;;;5091818;28;20282;-78
2020/12/15 05:32:46;;;;;;;12.10;10.47;;;5.70;99.90;;;;;;5091752;28;20301;-78
2020/12/15 05:35:13;;;;;;;11.27;10.17;;;5.70;99.90;;;;;;5091224;28;20275;-78
2020/12/15 05:37:43;;;;;;;11.23;10.07;;;5.70;99.90;;;;;;5091217;28;20579;-78
2020/12/15 05:40:10;;;;;;;13.27;11.13;;;5.70;99.90;;;;;;5090800;28;20743;-78
2020/12/15 05:42:37;;;;;;;11.77;10.10;;;5.70;99.90;;;;;;5090694;28;20254;-78
2020/12/15 05:45:05;;;;;;;11.67;10.43;;;5.70;99.90;;;;;;5091010;28;20668;-78
2020/12/15 05:47:33;;;;;;;12.27;10.97;;;5.70;99.90;;;;;;5091396;28;20199;-78
2020/12/15 05:50:00;;;;;;;12.30;11.00;;;5.70;99.90;;;;;;5090944;28;20259;-80
2020/12/15 05:52:28;;;;;;;11.53;10.43;;;5.70;99.90;;;;;;5091426;28;20206;-80
2020/12/15 05:55:05;;;;;;;11.90;10.70;;;5.70;99.90;;;;;;5090831;28;20321;-80
2020/12/15 05:57:32;;;;;;;12.87;11.53;;;5.70;99.90;;;;;;5090959;28;20684;-78
2020/12/15 06:00:09;;;;;;;12.60;11.30;;;5.70;99.90;;;;;;5090520;28;20733;-78
2020/12/15 06:02:36;;;;;;;12.73;11.43;;;5.70;99.90;;;;;;5090699;28;20210;-81
2020/12/15 06:05:04;;;;;;;11.97;10.73;;;5.70;99.90;;;;;;5090738;28;20614;-80
2020/12/15 06:07:32;;;;;;;12.70;11.40;;;5.70;99.90;;;;;;5089970;28;20213;-79
2020/12/15 06:09:59;;;;;;;12.67;11.10;;;5.70;99.90;;;;;;5090677;28;20214;-81
2020/12/15 06:12:25;;;;;;;13.40;12.00;;;5.70;99.90;;;;;;5090617;28;20203;-80
2020/12/15 06:14:52;;;;;;;12.97;11.67;;;5.70;99.90;;;;;;5090865;28;20252;-80
2020/12/15 06:17:20;;;;;;;13.23;11.83;;;5.70;99.90;;;;;;5090489;28;20290;-77
2020/12/15 06:19:52;;;;;;;13.03;11.40;;;5.70;99.90;;;;;;5089992;28;20725;-77
2020/12/15 06:22:21;;;;;;;13.40;11.93;;;5.70;99.90;;;;;;5090585;28;20719;-77
2020/12/15 06:24:55;;;;;;;14.17;11.60;;;5.70;99.90;;;;;;5090519;28;20297;-77
2020/12/15 06:27:30;;;;;;;13.37;12.00;;;5.70;99.90;;;;;;5090296;28;20254;-77
2020/12/15 06:29:56;;;;;;;13.50;12.10;;;5.70;99.90;;;;;;5090514;28;20260;-77
2020/12/15 06:32:23;;;;;;;14.67;11.80;;;5.70;99.90;;;;;;5089674;28;20684;-78
2020/12/15 06:34:51;;;;;;;13.57;12.17;;;5.60;99.90;;;;;;5089935;28;20211;-78
2020/12/15 06:37:19;;;;;;;13.63;12.20;;;5.60;99.90;;;;;;5089605;28;20657;-77
2020/12/15 06:40:00;;;;;;;14.97;11.90;;;5.70;99.90;;;;;;5090161;28;20278;-77
2020/12/15 06:42:27;;;;;;;12.97;11.63;;;5.70;99.90;;;;;;5090149;28;20222;-77
2020/12/15 06:45:04;;;;;;;13.93;12.53;;;5.70;99.90;;;;;;5090300;28;20294;-77
2020/12/15 06:47:31;;;;;;;13.60;12.13;;;5.70;99.90;;;;;;5089969;28;20194;-77
2020/12/15 06:50:09;;;;;;;13.43;11.77;;;5.70;99.90;;;;;;5090255;28;20213;-77
2020/12/15 06:52:35;;;;;;;13.30;12.00;;;5.70;99.90;;;;;;5090172;28;20197;-77
2020/12/15 06:55:01;;;;;;;12.73;11.40;;;5.70;99.90;;;;;;5089562;28;20231;-79
2020/12/15 06:57:32;;;;;;;12.40;11.10;;;5.70;99.90;;;;;;5089704;28;20294;-77
2020/12/15 07:00:00;;;;;;;15.47;12.83;;;5.70;99.90;;;;;;5089942;28;20222;-78
2020/12/15 07:02:31;;;;;;;14.03;12.53;;;5.70;99.90;;;;;;5089352;28;20210;-76
2020/12/15 07:05:23;;;;;;;13.17;11.77;;;5.70;99.90;;;;;;5089370;28;20203;-76
2020/12/15 07:07:51;;;;;;;13.63;12.03;;;5.70;99.90;;;;;;5088792;28;20195;-76
2020/12/15 07:10:19;;;;;;;13.03;11.73;;;5.70;99.90;;;;;;5088561;28;20217;-75
2020/12/15 07:12:47;;;;;;;14.10;12.40;;;5.70;99.90;;;;;;5089168;28;20297;-82
2020/12/15 07:15:14;;;;;;;13.67;12.00;;;5.60;99.90;;;;;;5088015;28;20199;-83
2020/12/15 07:17:45;;;;;;;13.33;11.93;;;5.60;99.90;;;;;;5094379;28;20198;-82
2020/12/15 07:20:12;;;;;;;13.63;11.77;;;5.60;99.90;;;;;;5094302;28;20325;-81
2020/12/15 07:22:40;;;;;;;13.83;12.30;;;5.70;99.90;;;;;;5089179;28;20198;-81
2020/12/15 07:25:07;;;;;;;13.50;12.03;;;5.60;99.90;;;;;;5088817;28;20771;-80
2020/12/15 07:27:35;;;;;;;17.90;12.07;;;5.60;99.90;;;;;;5089409;28;20216;-79
2020/12/15 07:30:02;;;;;;;13.90;12.23;;;5.60;99.90;;;;;;5089480;28;20293;-80
2020/12/15 07:32:28;;;;;;;13.70;11.73;;;5.60;99.90;;;;;;5089500;28;20203;-80
2020/12/15 07:35:00;;;;;;;13.60;12.13;;;5.60;99.90;;;;;;5089444;28;20222;-79
2020/12/15 07:37:27;;;;;;;13.13;11.40;;;5.60;99.90;;;;;;5089308;28;20210;-80
2020/12/15 07:40:01;;;;;;;12.90;11.23;;;5.60;99.90;;;;;;5088816;28;20593;-79
2020/12/15 07:42:27;;;;;;;13.77;12.17;;;5.70;99.90;;;;;;5087803;28;20273;-80
2020/12/15 07:44:58;;;;;;;12.90;11.67;;;5.70;99.90;;;;;;5087808;28;20203;-81
2020/12/15 07:47:26;;;;;;;13.60;11.57;;;5.70;99.90;;;;;;5087295;28;20302;-80
2020/12/15 07:49:56;;;;;;;12.97;11.63;;;5.70;99.90;;;;;;5085792;28;20206;-81
2020/12/15 07:52:35;;;;;;;13.17;11.77;;;5.70;99.90;;;;;;5084157;28;20238;-80
2020/12/15 07:55:05;;;;;;;12.33;10.97;;;5.70;99.90;;;;;;5084417;28;20235;-80
2020/12/15 07:57:34;;;;;;;12.97;11.67;;;5.70;99.90;;;;;;5084854;28;20209;-80
2020/12/15 08:00:06;;;;;;;13.00;11.60;;;5.70;99.90;;;;;;5084284;28;20712;-79
2020/12/15 08:02:33;;;;;;;13.93;11.90;;;5.70;99.90;;;;;;5084625;28;20199;-80
2020/12/15 08:05:13;;;;;;;13.70;12.27;;;5.70;99.90;;;;;;5084388;28;20203;-80
2020/12/15 08:07:46;;;;;;;12.97;11.77;;;5.70;99.90;;;;;;5089393;28;20213;-81
2020/12/15 08:10:14;;;;;;;35.30;31.57;;;5.70;99.90;;;;;;5093800;28;20198;-81
2020/12/15 08:12:41;;;;;;;25.07;22.60;;;5.80;99.90;;;;;;5094455;28;20206;-80
2020/12/15 08:15:08;;;;;;;14.00;12.17;;;5.80;99.90;;;;;;5084861;28;20301;-80
2020/12/15 08:17:37;;;;;;;14.87;12.87;;;5.80;99.90;;;;;;5087711;28;20219;-79
2020/12/15 08:20:06;;;;;;;13.97;11.87;;;5.80;99.90;;;;;;5086873;28;20227;-79
2020/12/15 08:22:38;;;;;;;13.10;11.70;;;5.80;99.90;;;;;;5084876;28;20210;-79
2020/12/15 08:25:05;;;;;;;12.83;11.20;;;5.80;99.90;;;;;;5086862;28;20744;-79
2020/12/15 08:27:34;;;;;;;13.20;11.80;;;5.90;99.90;;;;;;5084264;28;20207;-80
2020/12/15 08:30:00;;;;;;;12.60;11.30;;;5.90;99.90;;;;;;5084838;28;20214;-79
2020/12/15 08:32:31;;;;;;;12.87;11.37;;;5.90;99.90;;;;;;5084577;28;20217;-79
2020/12/15 08:35:00;;;;;;;12.90;11.47;;;5.90;99.90;;;;;;5084443;28;20206;-79
2020/12/15 08:37:26;;;;;;;12.40;11.20;;;5.90;99.90;;;;;;5084595;28;20296;-79
2020/12/15 08:39:54;;;;;;;13.87;11.70;;;5.90;99.90;;;;;;5084679;28;20230;-80
2020/12/15 08:42:21;;;;;;;11.80;10.60;;;6.00;99.90;;;;;;5084375;28;20234;-80
2020/12/15 08:44:48;;;;;;;13.47;11.57;;;6.00;99.90;;;;;;5084620;28;20202;-80
2020/12/15 08:47:18;;;;;;;12.87;11.53;;;6.00;99.90;;;;;;5084347;28;20257;-80
2020/12/15 08:49:45;;;;;;;12.80;11.20;;;6.00;99.90;;;;;;5093670;28;20290;-79
2020/12/15 08:52:20;;;;;;;13.47;11.90;;;6.00;99.90;;;;;;5104662;28;20326;-80
2020/12/15 08:54:47;;;;;;;13.27;11.27;;;6.00;99.90;;;;;;5104433;28;20648;-79
2020/12/15 08:57:14;;;;;;;11.53;10.40;;;6.00;99.90;;;;;;5104233;28;20737;-79
2020/12/15 08:59:40;;;;;;;12.03;10.83;;;6.10;99.90;;;;;;5104459;28;20233;-79
2020/12/15 09:02:11;;;;;;;12.77;11.53;;;6.10;99.90;;;;;;5104545;28;20322;-79
2020/12/15 09:04:39;;;;;;;12.83;11.23;;;6.10;99.90;;;;;;5104520;28;20198;-79
2020/12/15 09:07:12;;;;;;;11.67;10.47;;;6.10;99.90;;;;;;5104111;28;20639;-78
2020/12/15 09:09:39;;;;;;;13.10;11.60;;;6.20;99.90;;;;;;5104253;28;20704;-78
2020/12/15 09:12:05;;;;;;;13.57;11.80;;;6.20;99.90;;;;;;5104547;28;20293;-79
2020/12/15 09:14:32;;;;;;;12.13;10.87;;;6.40;99.90;;;;;;5104293;28;20206;-78
2020/12/15 09:16:58;;;;;;;11.80;10.60;;;6.40;99.90;;;;;;5090795;28;20261;-77
2020/12/15 09:19:27;;;;;;;11.97;10.67;;;6.40;99.90;;;;;;5087519;28;20269;-78
2020/12/15 09:21:58;;;;;;;12.43;11.03;;;6.40;99.90;;;;;;5099838;28;20203;-78
2020/12/15 09:24:25;;;;;;;10.93;9.83;;;6.40;99.90;;;;;;5107493;28;20229;-78
2020/12/15 09:26:52;;;;;;;11.67;10.47;;;6.40;99.90;;;;;;5111191;28;20224;-77
2020/12/15 09:29:18;;;;;;;11.60;10.40;;;6.40;99.90;;;;;;5111706;28;20304;-78
2020/12/15 09:31:52;;;;;;;12.20;10.40;;;6.40;99.90;;;;;;5101269;28;20199;-77
2020/12/15 09:34:19;;;;;;;11.83;10.60;;;6.50;99.90;;;;;;5090850;28;20195;-78
2020/12/15 09:36:56;;;;;;;11.50;10.30;;;6.50;99.90;;;;;;5091173;28;20238;-78
2020/12/15 09:39:23;;;;;;;10.77;9.70;;;6.50;99.90;;;;;;5090962;28;20233;-77
2020/12/15 09:41:50;;;;;;;11.23;10.03;;;6.60;99.90;;;;;;5091051;28;20709;-77
2020/12/15 09:44:17;;;;;;;11.63;10.43;;;6.60;99.90;;;;;;5091112;28;20728;-77
2020/12/15 09:46:43;;;;;;;11.17;9.87;;;6.60;99.90;;;;;;5090639;28;20225;-78
2020/12/15 09:49:09;;;;;;;10.90;9.80;;;6.60;99.90;;;;;;5090902;28;20198;-78
2020/12/15 09:51:36;;;;;;;10.30;9.30;;;6.60;99.90;;;;;;5107715;28;20668;-77
2020/12/15 09:54:03;;;;;;;10.93;9.83;;;6.70;99.90;;;;;;5110874;28;20237;-77
2020/12/15 09:56:31;;;;;;;10.70;9.60;;;6.70;99.90;;;;;;5110498;28;20889;-78
2020/12/15 09:58:58;;;;;;;9.57;8.67;;;6.70;99.90;;;;;;5111106;28;20680;-78
2020/12/15 10:01:25;;;;;;;11.13;9.30;;;6.70;99.90;;;;;;5110842;28;20233;-77
2020/12/15 10:03:51;;;;;;;10.37;9.37;;;6.70;99.90;;;;;;5111168;28;20334;-77
2020/12/15 10:06:17;;;;;;;9.93;9.03;;;6.70;99.90;;;;;;5106859;28;20202;-78
2020/12/15 10:08:44;;;;;;;9.63;8.70;;;6.70;99.90;;;;;;5092117;28;20297;-77
2020/12/15 10:11:14;;;;;;;9.80;8.80;;;6.70;99.90;;;;;;5096795;27;20268;-77
2020/12/15 10:13:41;;;;;;;10.03;9.13;;;6.70;99.90;;;;;;5090173;28;20195;-78
2020/12/15 10:16:07;;;;;;;10.07;9.00;;;6.70;99.90;;;;;;5090368;28;20328;-78
2020/12/15 10:18:34;;;;;;;11.10;9.93;;;6.70;99.90;;;;;;5089618;28;20259;-77
2020/12/15 10:21:00;;;;;;;10.10;9.10;;;6.70;99.90;;;;;;5090317;28;20727;-76
2020/12/15 10:23:26;;;;;;;10.63;8.90;;;6.70;99.90;;;;;;5090261;28;20438;-77
2020/12/15 10:25:53;;;;;;;9.23;8.43;;;6.70;99.90;;;;;;5090443;28;20283;-77
2020/12/15 10:28:20;;;;;;;9.60;8.47;;;6.80;99.90;;;;;;5090131;28;20211;-77
2020/12/15 10:30:46;;;;;;;9.60;8.23;;;6.70;99.90;;;;;;5090129;28;20236;-77
2020/12/15 10:33:12;;;;;;;9.83;8.83;;;6.70;99.90;;;;;;5089779;28;20808;-77
2020/12/15 10:35:39;;;;;;;9.60;8.70;;;6.70;99.90;;;;;;5088862;28;20725;-77
2020/12/15 10:38:05;;;;;;;9.17;8.20;;;6.80;99.90;;;;;;5090028;28;20564;-76
2020/12/15 10:40:32;;;;;;;10.17;9.00;;;6.80;99.90;;;;;;5089944;28;20235;-77
2020/12/15 10:42:58;;;;;;;9.73;8.23;;;6.80;99.90;;;;;;5089883;28;20203;-76
2020/12/15 10:45:25;;;;;;;8.70;7.90;;;6.80;99.90;;;;;;5089806;28;20206;-76
2020/12/15 10:47:51;;;;;;;9.60;8.70;;;6.80;99.90;;;;;;5089732;28;20297;-77
2020/12/15 10:50:18;;;;;;;10.03;9.03;;;6.80;99.90;;;;;;5089966;28;20210;-76
2020/12/15 10:52:44;;;;;;;9.63;8.73;;;6.80;99.90;;;;;;5089477;28;20293;-76
2020/12/15 10:55:11;;;;;;;9.40;8.50;;;6.80;99.90;;;;;;5106704;28;20690;-76
2020/12/15 10:57:37;;;;;;;9.87;8.80;;;6.80;99.90;;;;;;5110298;28;20216;-76
2020/12/15 11:00:06;;;;;;;9.87;8.87;;;6.90;99.90;;;;;;5109875;28;20726;-76
2020/12/15 11:02:33;;;;;;;9.37;8.47;;;6.90;99.90;;;;;;5109613;28;20741;-77
2020/12/15 11:05:00;;;;;;;9.67;8.27;;;6.90;99.90;;;;;;5109910;28;20289;-77
2020/12/15 11:07:26;;;;;;;10.30;9.33;;;6.90;99.90;;;;;;5102877;28;20230;-78
2020/12/15 11:09:52;;;;;;;14.93;13.53;;;6.90;99.90;;;;;;5099681;27;20289;-78
2020/12/15 11:12:19;;;;;;;14.03;12.73;;;7.00;99.90;;;;;;5097201;28;20286;-77
2020/12/15 11:14:45;;;;;;;9.23;8.23;;;7.00;99.90;;;;;;5100059;28;20296;-77
2020/12/15 11:17:11;;;;;;;9.20;8.30;;;7.00;99.90;;;;;;5105846;28;20212;-77
2020/12/15 11:19:39;;;;;;;9.23;8.00;;;7.00;99.90;;;;;;5105127;28;20358;-77
2020/12/15 11:22:05;;;;;;;8.73;7.93;;;7.00;99.90;;;;;;5105826;28;20203;-77
2020/12/15 11:24:31;;;;;;;9.10;8.23;;;7.00;99.90;;;;;;5106627;28;20202;-76
2020/12/15 11:26:58;;;;;;;8.97;8.17;;;7.00;99.90;;;;;;5105604;28;20210;-77
2020/12/15 11:29:24;;;;;;;9.27;8.37;;;7.00;99.90;;;;;;5101973;28;20218;-76
2020/12/15 11:31:51;;;;;;;8.87;8.00;;;7.00;99.90;;;;;;5105228;28;20301;-76
2020/12/15 11:34:17;;;;;;;8.73;7.83;;;7.00;99.90;;;;;;5094035;28;20279;-77
2020/12/15 11:36:44;;;;;;;9.07;8.07;;;7.00;99.90;;;;;;5104783;28;20206;-77
2020/12/15 11:39:11;;;;;;;9.20;8.27;;;7.00;99.90;;;;;;5104939;28;20212;-76
2020/12/15 11:41:38;;;;;;;10.40;8.57;;;7.10;99.90;;;;;;5105724;28;20321;-77
2020/12/15 11:44:05;;;;;;;10.33;8.27;;;7.10;99.90;;;;;;5106016;28;20746;-77
2020/12/15 11:46:31;;;;;;;8.80;7.83;;;7.20;99.90;;;;;;5094691;28;20565;-77
2020/12/15 11:48:58;;;;;;;8.70;7.80;;;7.20;99.90;;;;;;5093023;28;20521;-75
2020/12/15 11:51:24;;;;;;;9.00;8.20;;;7.30;99.90;;;;;;5099364;28;20706;-75
2020/12/15 11:53:51;;;;;;;9.00;8.10;;;7.30;99.90;;;;;;5099082;28;20722;-76
2020/12/15 11:56:18;;;;;;;8.80;7.97;;;7.30;99.90;;;;;;5099790;28;20252;-75
2020/12/15 11:58:44;;;;;;;9.30;8.17;;;7.30;99.90;;;;;;5094175;28;20201;-78
2020/12/15 12:01:11;;;;;;;8.47;7.67;;;7.30;99.90;;;;;;5096474;28;20237;-76
2020/12/15 12:03:37;;;;;;;8.00;7.30;;;7.30;99.90;;;;;;5101855;28;20191;-76
2020/12/15 12:06:04;;;;;;;8.37;7.57;;;7.30;99.90;;;;;;5087905;28;20604;-76
2020/12/15 12:08:33;;;;;;;8.30;7.60;;;7.30;99.90;;;;;;5088116;28;20305;-76
2020/12/15 12:11:00;;;;;;;8.30;7.50;;;7.20;99.90;;;;;;5088574;28;20261;-76
2020/12/15 12:13:27;;;;;;;8.30;7.50;;;7.30;99.90;;;;;;5090212;28;20639;-75
2020/12/15 12:15:53;;;;;;;10.60;7.97;;;7.30;99.90;;;;;;5108754;28;20292;-76
2020/12/15 12:18:19;;;;;;;7.33;6.73;;;7.20;99.90;;;;;;5108590;28;20202;-77
2020/12/15 12:20:46;;;;;;;14.10;8.10;;;7.30;99.90;;;;;;5107333;28;20799;-76
2020/12/15 12:23:12;;;;;;;8.33;7.60;;;7.30;99.90;;;;;;5103354;28;20202;-75
2020/12/15 12:25:38;;;;;;;8.50;7.70;;;7.30;99.90;;;;;;5108176;28;20212;-76
2020/12/15 12:28:06;;;;;;;8.27;7.57;;;7.30;99.90;;;;;;5107787;28;20206;-76
2020/12/15 12:30:32;;;;;;;9.37;8.30;;;7.30;99.90;;;;;;5108878;28;20258;-76
2020/12/15 12:32:58;;;;;;;9.80;7.77;;;7.30;99.90;;;;;;5107804;28;20213;-77
2020/12/15 12:35:25;;;;;;;8.47;7.67;;;7.20;99.90;;;;;;5108124;28;20198;-76
2020/12/15 12:37:51;;;;;;;8.67;7.87;;;7.30;99.90;;;;;;5108850;28;20266;-77
2020/12/15 12:40:17;;;;;;;8.70;7.90;;;7.20;99.90;;;;;;5107926;28;20229;-77
2020/12/15 12:42:44;;;;;;;8.77;7.90;;;7.20;99.90;;;;;;5108431;28;20320;-77
2020/12/15 12:45:11;;;;;;;8.27;7.57;;;7.20;99.90;;;;;;5108196;28;20210;-76
2020/12/15 12:47:38;;;;;;;8.80;7.90;;;7.20;99.90;;;;;;5108674;28;20250;-76
2020/12/15 12:50:05;;;;;;;8.60;7.80;;;7.20;99.90;;;;;;5108627;28;20289;-76